Time;durP1;ratioP1;P1;durP2;ratioP2;P2;SDS_P1;SDS_P2;PMS_P1;PMS_P2;Temp;Humidity;BMP_temperature;BMP_pressure;BME280_temperature;BME280_humidity;BME280_pressure;Samples;Min_cycle;Max_cycle;Signal;HPM_P1;HPM_P2
2023/05/10 00:00:28;;;;;;;11.25;7.38;;;16.90;74.40;;;;;;5052291;28;20099;-50
2023/05/10 00:02:54;;;;;;;8.93;7.60;;;16.90;74.40;;;;;;5052041;28;20094;-51
2023/05/10 00:05:21;;;;;;;7.97;7.18;;;16.90;74.50;;;;;;5051584;28;20552;-50
2023/05/10 00:07:48;;;;;;;9.48;7.18;;;16.90;74.50;;;;;;5051148;28;20444;-53
2023/05/10 00:10:14;;;;;;;8.52;7.63;;;16.90;74.80;;;;;;5051487;28;20048;-51
2023/05/10 00:12:41;;;;;;;9.48;7.60;;;16.90;75.00;;;;;;5051843;28;20045;-54
2023/05/10 00:15:12;;;;;;;9.82;7.82;;;16.90;75.00;;;;;;5033118;28;20130;-50
2023/05/10 00:17:38;;;;;;;7.93;7.13;;;16.90;75.30;;;;;;5051104;28;20489;-54
2023/05/10 00:20:08;;;;;;;9.18;7.80;;;17.00;75.30;;;;;;5051627;28;20040;-54
2023/05/10 00:22:39;;;;;;;10.13;7.90;;;17.00;75.30;;;;;;5052229;28;20065;-53
2023/05/10 00:25:07;;;;;;;8.77;6.95;;;17.00;75.30;;;;;;5050763;28;20599;-50
2023/05/10 00:27:36;;;;;;;7.25;5.93;;;17.00;75.20;;;;;;5051641;28;20044;-54
2023/05/10 00:30:03;;;;;;;8.30;6.82;;;17.00;75.20;;;;;;5051534;28;20048;-54
2023/05/10 00:32:29;;;;;;;7.65;6.25;;;17.00;75.20;;;;;;5052661;28;20037;-54
2023/05/10 00:34:59;;;;;;;6.00;5.40;;;17.10;75.40;;;;;;5050669;28;20044;-54
2023/05/10 00:37:28;;;;;;;7.28;5.72;;;17.00;75.30;;;;;;5029840;28;20527;-55
2023/05/10 00:39:55;;;;;;;6.03;5.32;;;17.10;75.40;;;;;;5034763;28;20041;-55
2023/05/10 00:42:24;;;;;;;5.15;4.65;;;17.10;75.10;;;;;;5051111;28;20090;-51
2023/05/10 00:44:53;;;;;;;5.35;4.85;;;17.10;74.80;;;;;;5048761;28;20139;-55
2023/05/10 00:47:24;;;;;;;5.25;4.75;;;17.10;74.70;;;;;;5048856;28;20068;-54
2023/05/10 00:49:55;;;;;;;5.63;4.90;;;17.10;74.50;;;;;;5029696;28;20049;-51
2023/05/10 00:52:23;;;;;;;6.80;5.28;;;17.10;74.40;;;;;;5032244;28;20049;-51
2023/05/10 00:54:54;;;;;;;6.32;4.47;;;17.00;74.70;;;;;;5049872;28;20520;-55
2023/05/10 00:57:24;;;;;;;4.75;4.35;;;17.00;74.60;;;;;;5049830;28;20052;-54
2023/05/10 00:59:53;;;;;;;5.38;4.75;;;17.00;74.60;;;;;;5049092;28;20085;-53
2023/05/10 01:02:20;;;;;;;5.97;5.25;;;17.00;74.70;;;;;;5051739;28;20045;-55
2023/05/10 01:04:49;;;;;;;6.68;5.30;;;17.00;74.70;;;;;;5050774;28;20041;-53
2023/05/10 01:07:23;;;;;;;5.37;4.70;;;17.00;74.70;;;;;;5030153;28;20037;-54
2023/05/10 01:09:51;;;;;;;7.55;6.22;;;17.00;74.60;;;;;;5050011;28;20148;-53
2023/05/10 01:12:30;;;;;;;;;;;;;;;;;;;;;
2023/05/10 01:14:57;;;;;;;8.35;6.72;;;17.00;74.80;;;;;;5031815;28;20087;-54
2023/05/10 01:17:24;;;;;;;8.25;6.95;;;17.00;74.60;;;;;;5049842;28;20045;-55
2023/05/10 01:19:51;;;;;;;8.25;7.25;;;17.00;74.60;;;;;;5032447;28;20151;-51
2023/05/10 01:22:35;;;;;;;7.38;6.65;;;17.00;74.70;;;;;;5051320;28;20049;-52
2023/05/10 01:25:20;;;;;;;7.03;6.07;;;17.00;75.40;;;;;;5048417;28;20045;-51
2023/05/10 01:28:01;;;;;;;7.75;6.40;;;17.00;75.20;;;;;;5050487;28;20374;-54
2023/05/10 01:31:03;;;;;;;8.50;7.05;;;17.00;75.10;;;;;;5050581;28;20048;-55
2023/05/10 01:33:40;;;;;;;7.88;6.60;;;17.00;75.20;;;;;;5050439;28;20440;-51
2023/05/10 01:36:25;;;;;;;7.60;6.25;;;17.00;74.70;;;;;;5049960;28;20052;-53
2023/05/10 01:39:20;;;;;;;7.75;6.68;;;17.00;75.00;;;;;;5028804;28;20059;-52
2023/05/10 01:41:54;;;;;;;7.63;6.65;;;17.00;75.40;;;;;;5049998;28;20073;-51
2023/05/10 01:44:28;;;;;;;7.10;6.40;;;17.00;75.20;;;;;;5050218;28;20493;-51
2023/05/10 01:47:27;;;;;;;8.15;5.88;;;17.00;75.10;;;;;;5048364;28;20045;-55
2023/05/10 01:50:01;;;;;;;6.85;5.47;;;17.00;75.30;;;;;;5042222;28;20080;-50
2023/05/10 01:52:36;;;;;;;6.70;5.70;;;17.00;75.10;;;;;;5050522;28;20041;-50
2023/05/10 01:55:11;;;;;;;7.03;6.32;;;17.00;75.10;;;;;;5048879;28;20403;-53
2023/05/10 01:57:42;;;;;;;9.52;7.38;;;17.00;75.10;;;;;;5048337;28;20041;-54
2023/05/10 02:00:13;;;;;;;8.52;7.30;;;17.00;75.10;;;;;;5048518;28;20045;-51
2023/05/10 02:02:44;;;;;;;10.57;7.83;;;17.00;75.10;;;;;;5050063;28;20055;-51
2023/05/10 02:05:17;;;;;;;11.00;9.05;;;17.00;75.00;;;;;;5049732;28;20694;-51
2023/05/10 02:07:44;;;;;;;11.48;8.80;;;17.00;75.00;;;;;;5032122;28;20043;-51
2023/05/10 02:10:15;;;;;;;10.60;8.65;;;17.00;75.10;;;;;;5030541;28;20055;-55
2023/05/10 02:12:45;;;;;;;11.43;8.55;;;17.00;75.10;;;;;;5049454;28;20513;-50
2023/05/10 02:15:16;;;;;;;8.43;7.22;;;17.00;75.10;;;;;;5048416;28;20037;-54
2023/05/10 02:17:46;;;;;;;10.68;8.75;;;17.00;75.10;;;;;;5043896;28;20051;-52
2023/05/10 02:20:16;;;;;;;11.48;9.00;;;17.00;75.20;;;;;;5049640;28;20041;-50
2023/05/10 02:22:48;;;;;;;11.15;9.48;;;17.00;75.30;;;;;;5041773;28;20044;-53
2023/05/10 02:25:16;;;;;;;10.88;8.60;;;17.00;75.30;;;;;;5047751;28;20550;-51
2023/05/10 02:27:48;;;;;;;11.32;8.85;;;17.00;75.30;;;;;;5046730;28;20029;-54
2023/05/10 02:30:21;;;;;;;12.45;9.52;;;17.00;75.50;;;;;;5031388;28;20052;-52
2023/05/10 02:32:52;;;;;;;11.43;9.50;;;17.00;75.40;;;;;;5050103;28;20116;-55
2023/05/10 02:35:27;;;;;;;14.13;9.85;;;17.00;75.60;;;;;;5046602;28;20531;-50
2023/05/10 02:37:54;;;;;;;14.95;10.65;;;17.00;75.70;;;;;;5044673;28;20045;-55
2023/05/10 02:40:25;;;;;;;14.68;10.07;;;17.00;75.50;;;;;;5044755;28;21031;-51
2023/05/10 02:43:02;;;;;;;14.80;10.60;;;17.00;75.50;;;;;;5029126;28;20049;-54
2023/05/10 02:45:54;;;;;;;12.30;9.57;;;17.00;75.60;;;;;;5028484;28;20503;-52
2023/05/10 02:48:20;;;;;;;14.25;11.50;;;17.10;75.90;;;;;;5046436;28;20063;-54
2023/05/10 02:50:51;;;;;;;17.35;12.27;;;17.10;75.40;;;;;;5031105;28;20036;-51
2023/05/10 02:53:43;;;;;;;14.18;11.45;;;17.10;75.30;;;;;;5030597;28;20044;-54
2023/05/10 02:56:17;;;;;;;19.10;13.55;;;17.10;75.70;;;;;;5048091;28;20037;-51
2023/05/10 02:58:43;;;;;;;17.23;12.40;;;17.10;75.30;;;;;;5047470;28;20040;-54
2023/05/10 03:01:10;;;;;;;16.65;12.55;;;17.00;75.10;;;;;;5048447;28;20071;-54
2023/05/10 03:03:37;;;;;;;16.80;12.23;;;17.00;75.20;;;;;;5048028;28;20037;-54
2023/05/10 03:06:13;;;;;;;19.67;12.73;;;17.00;75.30;;;;;;5046571;28;20045;-52
2023/05/10 03:08:40;;;;;;;17.73;13.05;;;17.00;75.30;;;;;;5047389;28;21214;-52
2023/05/10 03:11:37;;;;;;;18.20;12.80;;;17.00;75.30;;;;;;5024975;28;20464;-55
2023/05/10 03:14:09;;;;;;;18.60;13.18;;;17.00;75.70;;;;;;5047010;28;20102;-51
2023/05/10 03:17:04;;;;;;;16.05;12.20;;;17.00;75.20;;;;;;5045023;28;20064;-50
2023/05/10 03:19:43;;;;;;;18.63;13.77;;;17.00;75.70;;;;;;5039970;28;20060;-54
2023/05/10 03:22:12;;;;;;;20.40;13.25;;;17.00;75.60;;;;;;5027357;28;20056;-53
2023/05/10 03:24:41;;;;;;;21.00;12.93;;;17.00;75.40;;;;;;5029939;28;20657;-54
2023/05/10 03:27:12;;;;;;;18.38;12.82;;;17.00;75.60;;;;;;5027206;28;20041;-53
2023/05/10 03:29:39;;;;;;;21.40;13.45;;;17.00;75.50;;;;;;5031256;28;20051;-53
2023/05/10 03:32:06;;;;;;;19.52;13.50;;;17.00;75.40;;;;;;5028472;28;20045;-52
2023/05/10 03:34:42;;;;;;;17.95;13.93;;;16.90;75.50;;;;;;5046434;28;20582;-52
2023/05/10 03:37:14;;;;;;;18.88;13.10;;;16.90;75.60;;;;;;5040481;28;20041;-55
2023/05/10 03:39:41;;;;;;;16.58;12.63;;;17.00;75.50;;;;;;5029587;28;20057;-52
2023/05/10 03:42:11;;;;;;;16.70;13.18;;;17.00;75.40;;;;;;5031853;28;20462;-51
2023/05/10 03:44:40;;;;;;;19.58;13.23;;;16.90;75.40;;;;;;5047372;28;20049;-51
2023/05/10 03:47:08;;;;;;;16.70;12.05;;;16.90;75.50;;;;;;5068189;22;20053;-47
2023/05/10 03:49:37;;;;;;;15.95;12.88;;;16.90;75.50;;;;;;5050287;28;20135;-48
2023/05/10 03:52:06;;;;;;;14.65;12.15;;;16.90;75.50;;;;;;5070013;28;20032;-50
2023/05/10 03:54:33;;;;;;;16.00;11.18;;;16.90;75.80;;;;;;5060583;28;20040;-49
2023/05/10 03:57:04;;;;;;;14.48;12.10;;;16.90;75.70;;;;;;5044928;28;20037;-49
2023/05/10 03:59:33;;;;;;;16.30;11.02;;;16.90;75.60;;;;;;5030451;28;20053;-50
2023/05/10 04:02:03;;;;;;;13.07;11.05;;;16.90;75.60;;;;;;5048795;28;20041;-49
2023/05/10 04:04:30;;;;;;;13.85;10.52;;;17.00;75.70;;;;;;5022375;28;20045;-51
2023/05/10 04:06:57;;;;;;;12.82;9.98;;;17.00;75.50;;;;;;5030479;28;20048;-51
2023/05/10 04:09:24;;;;;;;14.25;10.00;;;17.00;75.50;;;;;;5048064;28;20033;-51
2023/05/10 04:11:54;;;;;;;15.02;10.48;;;17.00;75.40;;;;;;5037885;28;20120;-50
2023/05/10 04:14:23;;;;;;;12.57;9.73;;;16.90;75.30;;;;;;5048386;28;20044;-52
2023/05/10 04:16:53;;;;;;;12.18;8.68;;;16.90;75.10;;;;;;5049596;28;20045;-49
2023/05/10 04:19:20;;;;;;;12.50;8.98;;;17.00;75.00;;;;;;5051711;28;20676;-52
2023/05/10 04:21:54;;;;;;;12.10;9.68;;;16.90;75.00;;;;;;5052868;28;20052;-49
2023/05/10 04:24:34;;;;;;;14.27;10.18;;;16.90;75.00;;;;;;5051718;28;20047;-51
2023/05/10 04:27:03;;;;;;;10.85;8.70;;;16.90;75.00;;;;;;5048538;28;20047;-53
2023/05/10 04:29:32;;;;;;;16.00;9.48;;;16.90;74.90;;;;;;5050977;28;20033;-49
2023/05/10 04:32:03;;;;;;;16.35;10.18;;;16.90;74.90;;;;;;5046432;28;20516;-51
2023/05/10 04:34:31;;;;;;;12.25;8.30;;;16.90;74.90;;;;;;5045098;28;20038;-49
2023/05/10 04:37:00;;;;;;;13.25;9.30;;;16.80;74.80;;;;;;5047188;28;20103;-52
2023/05/10 04:39:29;;;;;;;12.85;9.55;;;16.80;74.80;;;;;;5049334;28;20055;-52
2023/05/10 04:41:57;;;;;;;13.30;8.73;;;16.80;74.80;;;;;;5052819;28;20049;-52
2023/05/10 04:44:27;;;;;;;12.85;9.10;;;16.80;74.80;;;;;;5047914;28;20044;-51
2023/05/10 04:46:54;;;;;;;13.05;10.50;;;16.80;74.80;;;;;;5047813;28;20037;-49
2023/05/10 04:49:21;;;;;;;12.32;9.43;;;16.80;74.90;;;;;;5050326;28;20052;-52
2023/05/10 04:51:48;;;;;;;15.50;9.52;;;16.80;74.90;;;;;;5051779;28;20037;-51
2023/05/10 04:54:14;;;;;;;14.77;9.60;;;16.80;74.90;;;;;;5048379;28;20048;-52
2023/05/10 04:56:41;;;;;;;14.40;9.65;;;16.80;74.90;;;;;;5058093;28;20037;-51
2023/05/10 04:59:08;;;;;;;13.13;10.25;;;16.80;74.80;;;;;;5050848;28;20049;-49
2023/05/10 05:01:34;;;;;;;13.65;9.73;;;16.70;74.70;;;;;;5050521;28;20063;-49
2023/05/10 05:04:01;;;;;;;15.90;10.18;;;16.70;74.70;;;;;;5048107;28;20044;-50
2023/05/10 05:06:28;;;;;;;16.95;11.02;;;16.70;74.70;;;;;;5051072;28;20102;-53
2023/05/10 05:08:54;;;;;;;13.65;10.75;;;16.70;74.80;;;;;;5050869;28;20041;-48
2023/05/10 05:11:21;;;;;;;14.82;10.60;;;16.70;74.70;;;;;;5029221;28;20045;-50
2023/05/10 05:13:47;;;;;;;15.32;10.70;;;16.70;74.90;;;;;;5050292;28;20040;-48
2023/05/10 05:16:14;;;;;;;14.35;10.32;;;16.70;75.10;;;;;;5047124;28;20048;-49
2023/05/10 05:18:41;;;;;;;16.35;11.35;;;16.70;75.10;;;;;;5050284;28;20072;-49
2023/05/10 05:21:18;;;;;;;15.38;10.98;;;16.70;75.10;;;;;;5050721;28;20499;-52
2023/05/10 05:23:45;;;;;;;19.88;11.15;;;16.70;75.60;;;;;;5051001;28;20070;-49
2023/05/10 05:26:12;;;;;;;20.27;12.02;;;16.70;75.40;;;;;;5041829;28;20391;-51
2023/05/10 05:28:39;;;;;;;16.33;10.82;;;16.70;75.40;;;;;;5043980;28;20044;-50
2023/05/10 05:31:09;;;;;;;18.95;11.73;;;16.70;75.30;;;;;;5041479;28;20037;-52
2023/05/10 05:33:37;;;;;;;22.23;13.15;;;16.70;75.40;;;;;;5048128;28;20045;-53
2023/05/10 05:36:05;;;;;;;19.98;12.32;;;16.70;75.30;;;;;;5045779;28;20044;-48
2023/05/10 05:38:32;;;;;;;18.73;12.30;;;16.70;75.20;;;;;;5044283;28;20402;-51
2023/05/10 05:40:58;;;;;;;21.13;13.38;;;16.70;75.30;;;;;;5048863;28;20048;-52
2023/05/10 05:43:25;;;;;;;18.73;11.32;;;16.70;75.40;;;;;;5045996;28;20045;-51
2023/05/10 05:45:53;;;;;;;19.30;11.82;;;16.70;75.50;;;;;;5042475;28;20132;-52
2023/05/10 05:48:20;;;;;;;18.65;12.75;;;16.70;75.60;;;;;;5033405;28;20041;-52
2023/05/10 05:50:47;;;;;;;20.08;13.50;;;16.70;76.60;;;;;;5041319;28;20052;-52
2023/05/10 05:53:14;;;;;;;19.48;12.77;;;16.70;76.00;;;;;;5044445;28;20049;-49
2023/05/10 05:55:50;;;;;;;21.02;13.20;;;16.70;76.10;;;;;;5045548;28;20043;-52
2023/05/10 05:58:16;;;;;;;15.95;11.57;;;16.70;75.90;;;;;;5048447;28;20049;-52
2023/05/10 06:00:43;;;;;;;16.33;11.98;;;16.70;76.00;;;;;;5047903;28;20048;-49
2023/05/10 06:03:10;;;;;;;20.50;12.60;;;16.70;76.00;;;;;;5044391;28;20045;-52
2023/05/10 06:05:37;;;;;;;14.70;10.57;;;16.70;76.00;;;;;;5048352;28;20083;-52
2023/05/10 06:08:03;;;;;;;15.15;11.57;;;16.70;76.00;;;;;;5047855;28;20045;-49
2023/05/10 06:10:30;;;;;;;17.80;11.90;;;16.70;76.10;;;;;;5047481;28;20660;-51
2023/05/10 06:12:57;;;;;;;18.02;12.85;;;16.70;76.00;;;;;;5044971;28;20072;-50
2023/05/10 06:15:23;;;;;;;20.67;14.40;;;16.70;76.00;;;;;;5045302;28;20038;-52
2023/05/10 06:17:50;;;;;;;20.63;14.95;;;16.70;75.90;;;;;;5045852;28;20049;-53
2023/05/10 06:20:17;;;;;;;22.10;14.70;;;16.70;75.80;;;;;;5043603;28;20052;-50
2023/05/10 06:22:44;;;;;;;22.35;14.70;;;16.70;75.70;;;;;;5047520;28;20052;-50
2023/05/10 06:25:11;;;;;;;22.95;16.13;;;16.70;75.70;;;;;;5034736;28;20075;-52
2023/05/10 06:27:37;;;;;;;25.00;14.85;;;16.70;75.80;;;;;;5045792;28;20048;-52
2023/05/10 06:30:05;;;;;;;21.85;14.93;;;16.70;76.00;;;;;;5050080;28;20563;-52
2023/05/10 06:32:41;;;;;;;19.75;13.32;;;16.70;76.30;;;;;;5044747;28;20064;-48
2023/05/10 06:35:08;;;;;;;22.30;15.38;;;16.70;76.20;;;;;;5047908;28;20521;-52
2023/05/10 06:37:35;;;;;;;19.35;14.93;;;16.70;76.10;;;;;;5042999;28;20155;-50
2023/05/10 06:40:01;;;;;;;23.80;15.20;;;16.80;76.10;;;;;;5049490;28;20048;-50
2023/05/10 06:42:28;;;;;;;22.38;14.77;;;16.80;76.10;;;;;;5049745;28;20059;-50
2023/05/10 06:44:54;;;;;;;20.45;14.27;;;16.80;76.20;;;;;;5047279;28;20090;-49
2023/05/10 06:47:21;;;;;;;24.83;16.60;;;16.80;76.00;;;;;;5042213;28;20045;-49
2023/05/10 06:49:48;;;;;;;25.48;16.73;;;16.90;75.80;;;;;;5048854;28;20041;-49
2023/05/10 06:52:15;;;;;;;24.23;16.30;;;16.90;75.70;;;;;;5048912;28;20409;-52
2023/05/10 06:54:42;;;;;;;25.60;16.40;;;17.00;75.80;;;;;;5043227;28;20040;-53
2023/05/10 06:57:08;;;;;;;26.55;18.10;;;17.00;75.70;;;;;;5048521;28;20581;-51
2023/05/10 06:59:56;;;;;;;29.80;19.45;;;17.00;75.60;;;;;;5049460;28;20049;-49
2023/05/10 07:02:22;;;;;;;28.92;18.33;;;17.00;75.60;;;;;;5049224;28;20603;-50
2023/05/10 07:04:50;;;;;;;26.85;18.00;;;17.10;75.40;;;;;;5043896;28;20048;-52
2023/05/10 07:07:17;;;;;;;29.13;18.67;;;17.10;75.30;;;;;;5048082;28;20076;-49
2023/05/10 07:09:43;;;;;;;27.27;18.52;;;17.10;75.30;;;;;;5047925;28;20033;-52
2023/05/10 07:12:12;;;;;;;31.35;18.33;;;17.10;74.90;;;;;;5044863;28;20140;-52
2023/05/10 07:14:41;;;;;;;30.30;18.38;;;17.20;75.00;;;;;;5046174;28;20059;-52
2023/05/10 07:17:08;;;;;;;32.35;18.58;;;17.20;74.80;;;;;;5046575;28;20041;-51
2023/05/10 07:19:35;;;;;;;25.58;16.67;;;17.20;74.70;;;;;;5048989;28;20128;-54
2023/05/10 07:22:02;;;;;;;28.27;18.95;;;17.30;74.80;;;;;;5048321;28;20045;-51
2023/05/10 07:24:30;;;;;;;27.85;18.45;;;17.30;74.40;;;;;;5045343;28;20083;-52
2023/05/10 07:26:57;;;;;;;28.63;18.45;;;17.30;74.20;;;;;;5045616;28;20072;-51
2023/05/10 07:29:24;;;;;;;26.25;17.20;;;17.30;73.90;;;;;;5047481;28;20416;-48
2023/05/10 07:31:50;;;;;;;26.48;18.33;;;17.30;74.00;;;;;;5046324;28;20041;-51
2023/05/10 07:34:17;;;;;;;26.30;16.75;;;17.40;74.20;;;;;;5047243;28;20048;-50
2023/05/10 07:36:44;;;;;;;26.70;17.42;;;17.40;74.10;;;;;;5044567;28;20039;-52
2023/05/10 07:39:10;;;;;;;23.95;16.50;;;17.40;74.00;;;;;;5046478;28;20044;-49
2023/05/10 07:41:44;;;;;;;25.10;16.63;;;17.50;74.00;;;;;;5045448;28;20043;-51
2023/05/10 07:44:10;;;;;;;26.55;14.75;;;17.60;74.40;;;;;;5041192;28;20037;-51
2023/05/10 07:46:37;;;;;;;21.77;15.95;;;17.70;74.10;;;;;;5042660;28;20063;-53
2023/05/10 07:49:04;;;;;;;22.10;16.05;;;17.80;74.40;;;;;;5044438;28;20401;-49
2023/05/10 07:51:31;;;;;;;21.88;14.88;;;17.90;74.00;;;;;;5048662;28;20045;-52
2023/05/10 07:53:58;;;;;;;21.77;14.23;;;18.00;73.50;;;;;;5052265;28;20041;-51
2023/05/10 07:56:32;;;;;;;17.27;11.70;;;18.00;72.70;;;;;;5046101;28;20492;-51
2023/05/10 07:59:00;;;;;;;19.27;13.27;;;18.10;71.60;;;;;;5051818;28;20504;-50
2023/05/10 08:01:30;;;;;;;17.25;13.82;;;18.20;72.10;;;;;;5053107;28;20054;-50
2023/05/10 08:03:56;;;;;;;16.33;11.98;;;18.20;72.10;;;;;;5045643;28;20045;-48
2023/05/10 08:06:23;;;;;;;16.30;11.60;;;18.20;72.00;;;;;;5051491;28;20537;-50
2023/05/10 08:08:50;;;;;;;16.25;11.10;;;18.30;71.50;;;;;;5051106;28;20033;-52
2023/05/10 08:11:17;;;;;;;14.95;11.20;;;18.30;71.00;;;;;;5049213;28;20029;-51
2023/05/10 08:13:48;;;;;;;15.38;11.27;;;18.40;70.70;;;;;;5051411;28;20037;-49
2023/05/10 08:16:16;;;;;;;15.80;11.07;;;18.40;69.90;;;;;;5047077;28;20516;-50
2023/05/10 08:18:45;;;;;;;16.55;12.35;;;18.40;70.10;;;;;;5048514;28;20062;-50
2023/05/10 08:21:11;;;;;;;14.38;10.50;;;18.40;70.10;;;;;;5052043;28;20041;-49
2023/05/10 08:23:38;;;;;;;14.43;10.18;;;18.30;69.90;;;;;;5051157;28;20040;-51
2023/05/10 08:26:05;;;;;;;15.30;10.80;;;18.30;70.00;;;;;;5044186;28;20041;-52
2023/05/10 08:28:32;;;;;;;14.23;10.43;;;18.40;70.00;;;;;;5048668;28;20048;-51
2023/05/10 08:30:58;;;;;;;17.73;10.98;;;18.40;69.90;;;;;;5049747;28;20060;-51
2023/05/10 08:33:25;;;;;;;16.45;10.52;;;18.40;69.80;;;;;;5046601;28;20044;-54
2023/05/10 08:35:52;;;;;;;15.82;10.52;;;18.40;69.40;;;;;;5047800;28;20047;-50
2023/05/10 08:38:19;;;;;;;12.57;9.43;;;18.40;69.20;;;;;;5044433;28;20067;-49
2023/05/10 08:40:47;;;;;;;12.23;9.98;;;18.40;69.20;;;;;;5052091;28;20505;-51
2023/05/10 08:43:17;;;;;;;13.27;9.85;;;18.40;69.00;;;;;;5050357;28;20041;-50
2023/05/10 08:45:47;;;;;;;13.35;9.90;;;18.40;69.10;;;;;;5045631;28;20071;-51
2023/05/10 08:48:16;;;;;;;13.82;10.07;;;18.30;68.80;;;;;;5050510;28;20497;-51
2023/05/10 08:50:44;;;;;;;13.98;11.38;;;18.30;68.80;;;;;;5052332;28;20033;-49
2023/05/10 08:53:14;;;;;;;16.38;11.80;;;18.30;68.70;;;;;;5050906;28;20044;-53
2023/05/10 08:55:42;;;;;;;19.65;13.45;;;18.20;68.90;;;;;;5045900;28;20041;-48
2023/05/10 08:58:09;;;;;;;21.58;13.82;;;18.20;69.00;;;;;;5041711;28;20048;-51
2023/05/10 09:00:37;;;;;;;18.25;13.43;;;18.20;69.50;;;;;;5052110;28;20103;-49
2023/05/10 09:03:05;;;;;;;19.95;14.05;;;18.10;69.80;;;;;;5049950;28;20623;-49
2023/05/10 09:05:32;;;;;;;21.58;14.02;;;18.10;69.80;;;;;;5045348;28;20504;-49
2023/05/10 09:08:00;;;;;;;21.33;14.75;;;18.00;69.70;;;;;;5050168;28;20041;-51
2023/05/10 09:10:27;;;;;;;20.15;14.40;;;18.00;69.90;;;;;;5048804;28;20099;-54
2023/05/10 09:12:56;;;;;;;19.92;14.20;;;18.00;70.00;;;;;;5046638;28;20493;-49
2023/05/10 09:15:25;;;;;;;19.02;14.18;;;18.00;70.70;;;;;;5033699;28;20121;-52
2023/05/10 09:17:52;;;;;;;21.98;15.95;;;18.10;70.80;;;;;;5050002;28;20513;-53
2023/05/10 09:20:19;;;;;;;19.33;14.20;;;18.10;71.00;;;;;;5038339;28;20087;-51
2023/05/10 09:22:45;;;;;;;22.38;15.10;;;18.10;70.70;;;;;;5031918;28;20530;-51
2023/05/10 09:25:15;;;;;;;20.85;15.75;;;18.10;70.60;;;;;;5045157;28;20041;-53
2023/05/10 09:27:46;;;;;;;19.63;14.43;;;18.20;70.40;;;;;;5050924;28;20051;-51
2023/05/10 09:30:22;;;;;;;21.48;14.45;;;18.20;70.20;;;;;;5050977;28;20037;-51
2023/05/10 09:32:50;;;;;;;20.98;14.65;;;18.30;70.50;;;;;;5047970;28;20044;-50
2023/05/10 09:35:19;;;;;;;20.75;13.63;;;18.20;70.00;;;;;;5045543;28;20494;-52
2023/05/10 09:37:48;;;;;;;21.40;14.20;;;18.20;69.80;;;;;;5036743;28;20112;-52
2023/05/10 09:40:20;;;;;;;22.23;15.88;;;18.20;69.70;;;;;;5050066;28;20040;-54
2023/05/10 09:42:55;;;;;;;19.98;14.50;;;18.20;70.20;;;;;;5050939;28;20045;-51
2023/05/10 09:45:24;;;;;;;21.25;14.55;;;18.20;70.50;;;;;;5046322;28;20107;-48
2023/05/10 09:47:51;;;;;;;19.77;13.82;;;18.20;70.80;;;;;;5047755;28;20044;-50
2023/05/10 09:50:20;;;;;;;20.25;14.27;;;18.20;70.70;;;;;;5050076;28;20091;-53
2023/05/10 09:52:48;;;;;;;20.17;14.80;;;18.20;70.60;;;;;;5050656;28;20400;-51
2023/05/10 09:55:15;;;;;;;21.30;14.52;;;18.20;70.50;;;;;;5042933;28;20040;-49
2023/05/10 09:57:45;;;;;;;18.80;13.10;;;18.20;70.50;;;;;;5045905;28;20034;-51
2023/05/10 10:00:17;;;;;;;22.38;15.02;;;18.20;70.50;;;;;;5031083;28;20516;-50
2023/05/10 10:02:55;;;;;;;19.38;15.35;;;18.20;70.40;;;;;;5037278;28;20045;-52
2023/05/10 10:05:28;;;;;;;18.90;14.00;;;18.20;70.50;;;;;;5049289;28;20072;-51
2023/05/10 10:07:57;;;;;;;20.77;15.57;;;18.20;70.50;;;;;;5049017;28;20068;-51
2023/05/10 10:10:27;;;;;;;18.98;13.35;;;18.20;70.60;;;;;;5049337;28;20040;-50
2023/05/10 10:12:55;;;;;;;17.98;13.75;;;18.30;70.20;;;;;;5046136;28;20037;-50
2023/05/10 10:15:22;;;;;;;19.52;13.63;;;18.30;70.10;;;;;;5044492;28;20041;-49
2023/05/10 10:17:50;;;;;;;15.65;12.95;;;18.30;70.00;;;;;;5045836;28;20043;-53
2023/05/10 10:20:22;;;;;;;20.90;13.77;;;18.40;70.00;;;;;;5048775;28;20044;-49
2023/05/10 10:22:49;;;;;;;24.58;16.50;;;18.50;69.90;;;;;;5048711;28;20123;-50
2023/05/10 10:25:17;;;;;;;18.85;14.13;;;18.50;69.50;;;;;;5044868;28;20048;-50
2023/05/10 10:27:53;;;;;;;19.63;14.88;;;18.50;69.60;;;;;;5053486;28;20528;-49
2023/05/10 10:30:36;;;;;;;19.52;14.38;;;18.60;69.70;;;;;;5029743;28;20417;-52
2023/05/10 10:33:30;;;;;;;21.55;15.43;;;18.70;69.60;;;;;;5029681;28;20041;-53
2023/05/10 10:36:02;;;;;;;22.02;14.63;;;18.70;69.30;;;;;;5031321;28;20076;-49
2023/05/10 10:38:47;;;;;;;21.92;16.95;;;18.70;69.10;;;;;;5045758;28;20040;-50
2023/05/10 10:41:29;;;;;;;20.50;15.18;;;18.80;69.00;;;;;;5049755;28;20048;-51
2023/05/10 10:44:24;;;;;;;23.37;17.00;;;18.80;68.60;;;;;;5027033;28;20124;-50
2023/05/10 10:47:00;;;;;;;21.58;16.70;;;18.80;68.50;;;;;;5039957;28;20394;-51
2023/05/10 10:49:27;;;;;;;20.05;15.27;;;18.80;68.80;;;;;;5031267;28;20408;-49
2023/05/10 10:52:33;;;;;;;22.63;16.48;;;18.80;68.80;;;;;;5029416;28;20049;-51
2023/05/10 10:55:17;;;;;;;22.08;16.30;;;18.80;68.60;;;;;;5037015;28;20120;-52
2023/05/10 10:57:46;;;;;;;18.70;14.85;;;18.90;68.60;;;;;;5048697;28;20067;-52
2023/05/10 11:00:28;;;;;;;23.50;17.85;;;18.90;68.30;;;;;;5050154;28;20055;-50
2023/05/10 11:03:18;;;;;;;20.88;15.93;;;18.90;68.30;;;;;;5046124;28;20493;-51
2023/05/10 11:05:46;;;;;;;20.42;15.52;;;19.00;68.30;;;;;;5049253;28;20033;-51
2023/05/10 11:08:30;;;;;;;20.65;15.48;;;19.00;68.30;;;;;;5048934;28;20520;-50
2023/05/10 11:10:59;;;;;;;20.50;15.75;;;19.00;67.90;;;;;;5049626;28;20044;-50
2023/05/10 11:13:28;;;;;;;19.95;15.15;;;19.00;67.70;;;;;;5043644;28;20033;-52
2023/05/10 11:15:56;;;;;;;19.10;14.35;;;19.10;68.00;;;;;;5045303;28;20049;-50
2023/05/10 11:18:29;;;;;;;20.15;15.27;;;19.20;67.90;;;;;;5047961;28;20570;-49
2023/05/10 11:21:10;;;;;;;;;;;19.20;67.80;;;;;;5047820;28;20041;-50
2023/05/10 11:23:39;;;;;;;19.50;14.18;;;19.30;68.20;;;;;;5046152;28;19921;-52
2023/05/10 11:26:10;;;;;;;20.48;14.80;;;19.40;67.40;;;;;;5050730;28;20134;-53
2023/05/10 11:28:42;;;;;;;17.17;13.73;;;19.50;67.10;;;;;;5051111;28;20029;-51
2023/05/10 11:31:09;;;;;;;20.17;14.55;;;19.50;66.30;;;;;;5051474;28;20037;-53
2023/05/10 11:33:43;;;;;;;20.75;15.75;;;19.60;66.30;;;;;;5051491;28;20115;-50
2023/05/10 11:36:18;;;;;;;20.45;14.45;;;19.60;65.90;;;;;;5051105;28;20056;-53
2023/05/10 11:38:46;;;;;;;21.60;15.73;;;19.60;65.70;;;;;;5049574;28;20041;-51
2023/05/10 11:41:15;;;;;;;17.33;13.80;;;19.50;65.60;;;;;;5051391;28;20037;-49
2023/05/10 11:43:42;;;;;;;16.40;12.52;;;19.50;66.00;;;;;;5047257;28;20083;-50
2023/05/10 11:46:13;;;;;;;14.05;11.00;;;19.40;65.90;;;;;;5048850;28;20037;-52
2023/05/10 11:48:40;;;;;;;13.75;10.88;;;19.40;66.00;;;;;;5052448;28;20043;-52
2023/05/10 11:51:11;;;;;;;13.07;11.10;;;19.40;66.40;;;;;;5053147;28;20045;-50
2023/05/10 11:53:38;;;;;;;15.13;11.60;;;19.50;66.40;;;;;;5032901;28;20041;-49
2023/05/10 11:56:09;;;;;;;15.00;10.77;;;19.50;67.10;;;;;;5052160;28;20052;-53
2023/05/10 11:58:37;;;;;;;14.05;11.82;;;19.60;67.00;;;;;;5046413;28;20056;-50
2023/05/10 12:01:06;;;;;;;13.73;11.07;;;19.80;67.00;;;;;;5034556;28;20535;-50
2023/05/10 12:03:33;;;;;;;14.00;11.48;;;20.00;67.50;;;;;;5047986;28;20048;-50
2023/05/10 12:06:01;;;;;;;12.77;10.45;;;20.20;66.90;;;;;;5052133;28;20133;-53
2023/05/10 12:08:29;;;;;;;11.85;9.27;;;20.40;67.30;;;;;;5047056;28;20061;-52
2023/05/10 12:11:10;;;;;;;11.73;9.70;;;20.70;67.00;;;;;;5038695;28;20392;-50
2023/05/10 12:13:40;;;;;;;12.48;9.05;;;21.00;66.60;;;;;;5035663;28;20037;-52
2023/05/10 12:16:25;;;;;;;11.95;9.55;;;21.30;64.80;;;;;;5045470;28;20040;-50
2023/05/10 12:18:55;;;;;;;10.30;9.15;;;21.60;63.00;;;;;;5048844;28;20041;-53
2023/05/10 12:21:22;;;;;;;11.73;10.02;;;21.80;63.20;;;;;;5033869;28;20140;-49
2023/05/10 12:23:52;;;;;;;11.15;8.45;;;22.00;62.80;;;;;;5033102;28;20041;-53
2023/05/10 12:26:28;;;;;;;13.35;8.95;;;22.20;62.60;;;;;;5042785;28;20413;-51
2023/05/10 12:28:55;;;;;;;12.07;8.55;;;22.40;60.80;;;;;;5042744;28;20034;-54
2023/05/10 12:31:22;;;;;;;10.20;8.63;;;22.60;61.20;;;;;;5045875;28;20041;-49
2023/05/10 12:33:49;;;;;;;9.23;8.07;;;22.70;60.70;;;;;;5045762;28;20045;-52
2023/05/10 12:36:17;;;;;;;11.00;9.20;;;22.80;60.50;;;;;;5036369;28;20564;-54
2023/05/10 12:38:48;;;;;;;9.35;8.32;;;22.90;59.50;;;;;;5050446;28;20048;-51
2023/05/10 12:41:17;;;;;;;8.73;7.82;;;23.00;59.00;;;;;;5056880;28;20056;-53
2023/05/10 12:43:45;;;;;;;8.98;7.70;;;23.00;58.60;;;;;;5051446;28;20045;-53
2023/05/10 12:46:16;;;;;;;9.25;6.97;;;23.10;57.80;;;;;;5046428;28;20041;-52
2023/05/10 12:48:45;;;;;;;7.60;6.47;;;23.10;57.60;;;;;;5051108;28;20037;-53